sensor_id;sensor_type;location;lat;lon;timestamp;pressure;altitude;pressure_sealevel;temperature;humidity
73651;BME280;61944;52.538;6.108;2024-02-21T05:46:12;101651.88;;;8.96;100.00
73651;BME280;61944;52.538;6.108;2024-02-21T05:48:38;101646.31;;;8.96;100.00
73651;BME280;61944;52.538;6.108;2024-02-21T05:51:04;101640.81;;;9.00;100.00
73651;BME280;61944;52.538;6.108;2024-02-21T05:53:29;101634.19;;;8.92;100.00
73651;BME280;61944;52.538;6.108;2024-02-21T05:55:54;101635.81;;;8.93;100.00
73651;BME280;61944;52.538;6.108;2024-02-21T05:58:20;101627.09;;;8.94;100.00
73651;BME280;61944;52.538;6.108;2024-02-21T06:00:45;101629.09;;;8.94;100.00
73651;BME280;61944;52.538;6.108;2024-02-21T06:03:10;101619.06;;;8.93;100.00
73651;BME280;61944;52.538;6.108;2024-02-21T06:05:37;101615.22;;;8.98;100.00
73651;BME280;61944;52.538;6.108;2024-02-21T06:08:03;101610.00;;;8.96;100.00
73651;BME280;61944;52.538;6.108;2024-02-21T06:10:29;101608.13;;;9.00;100.00
73651;BME280;61944;52.538;6.108;2024-02-21T06:12:54;101608.03;;;8.97;100.00
73651;BME280;61944;52.538;6.108;2024-02-21T06:15:19;101598.94;;;8.87;100.00
73651;BME280;61944;52.538;6.108;2024-02-21T06:17:45;101591.84;;;8.90;100.00
73651;BME280;61944;52.538;6.108;2024-02-21T06:20:10;101602.09;;;8.86;100.00
73651;BME280;61944;52.538;6.108;2024-02-21T06:22:36;101593.34;;;8.87;100.00
73651;BME280;61944;52.538;6.108;2024-02-21T06:25:01;101597.44;;;8.90;100.00
73651;BME280;61944;52.538;6.108;2024-02-21T06:27:27;101602.09;;;8.86;100.00
73651;BME280;61944;52.538;6.108;2024-02-21T06:29:52;101595.00;;;8.88;100.00
73651;BME280;61944;52.538;6.108;2024-02-21T06:32:17;101596.03;;;8.84;100.00
73651;BME280;61944;52.538;6.108;2024-02-21T06:34:43;101598.13;;;8.87;100.00
73651;BME280;61944;52.538;6.108;2024-02-21T06:37:08;101596.97;;;8.88;100.00
73651;BME280;61944;52.538;6.108;2024-02-21T06:39:34;101596.50;;;8.86;100.00
73651;BME280;61944;52.538;6.108;2024-02-21T06:42:01;101605.34;;;8.88;100.00
73651;BME280;61944;52.538;6.108;2024-02-21T06:44:26;101595.56;;;8.82;100.00
73651;BME280;61944;52.538;6.108;2024-02-21T06:46:53;101606.75;;;8.82;100.00
73651;BME280;61944;52.538;6.108;2024-02-21T06:49:19;101600.22;;;8.78;100.00
73651;BME280;61944;52.538;6.108;2024-02-21T06:51:45;101600.44;;;8.85;100.00
73651;BME280;61944;52.538;6.108;2024-02-21T06:54:10;101610.94;;;8.88;100.00
73651;BME280;61944;52.538;6.108;2024-02-21T06:56:36;101599.97;;;8.83;100.00
73651;BME280;61944;52.538;6.108;2024-02-21T06:59:02;101603.56;;;8.83;100.00
73651;BME280;61944;52.538;6.108;2024-02-21T07:01:31;101606.03;;;8.85;100.00
73651;BME280;61944;52.538;6.108;2024-02-21T07:03:56;101602.78;;;8.83;100.00
73651;BME280;61944;52.538;6.108;2024-02-21T07:06:22;101595.91;;;8.80;100.00
73651;BME280;61944;52.538;6.108;2024-02-21T07:08:48;101599.28;;;8.86;100.00
73651;BME280;61944;52.538;6.108;2024-02-21T07:11:13;101599.75;;;8.88;100.00
73651;BME280;61944;52.538;6.108;2024-02-21T07:13:38;101589.06;;;8.90;100.00
73651;BME280;61944;52.538;6.108;2024-02-21T07:16:04;101599.75;;;8.88;100.00
73651;BME280;61944;52.538;6.108;2024-02-21T07:18:30;101584.63;;;8.89;100.00
73651;BME280;61944;52.538;6.108;2024-02-21T07:20:55;101587.28;;;8.85;100.00
73651;BME280;61944;52.538;6.108;2024-02-21T07:23:21;101586.94;;;8.87;100.00
73651;BME280;61944;52.538;6.108;2024-02-21T07:25:46;101583.81;;;8.88;100.00
73651;BME280;61944;52.538;6.108;2024-02-21T07:28:11;101571.25;;;8.82;100.00
73651;BME280;61944;52.538;6.108;2024-02-21T07:30:38;101571.00;;;8.87;100.00
73651;BME280;61944;52.538;6.108;2024-02-21T07:33:04;101573.47;;;8.89;100.00
73651;BME280;61944;52.538;6.108;2024-02-21T07:35:29;101566.59;;;8.86;100.00
73651;BME280;61944;52.538;6.108;2024-02-21T07:37:55;101561.38;;;8.85;100.00
73651;BME280;61944;52.538;6.108;2024-02-21T07:40:20;101554.84;;;8.81;100.00
73651;BME280;61944;52.538;6.108;2024-02-21T07:42:45;101559.03;;;8.87;100.00
73651;BME280;61944;52.538;6.108;2024-02-21T07:45:11;101555.91;;;8.88;100.00
73651;BME280;61944;52.538;6.108;2024-02-21T07:47:36;101560.56;;;8.84;100.00
73651;BME280;61944;52.538;6.108;2024-02-21T07:50:03;101559.97;;;8.79;100.00
73651;BME280;61944;52.538;6.108;2024-02-21T07:52:30;101551.13;;;8.89;100.00
73651;BME280;61944;52.538;6.108;2024-02-21T07:54:55;101543.34;;;8.82;100.00
73651;BME280;61944;52.538;6.108;2024-02-21T07:57:21;101540.66;;;8.86;100.00
73651;BME280;61944;52.538;6.108;2024-02-21T07:59:47;101538.34;;;8.88;100.00
73651;BME280;61944;52.538;6.108;2024-02-21T08:02:14;101529.84;;;8.84;100.00
73651;BME280;61944;52.538;6.108;2024-02-21T08:04:39;101523.47;;;8.84;100.00
73651;BME280;61944;52.538;6.108;2024-02-21T08:07:05;101522.75;;;8.87;100.00
73651;BME280;61944;52.538;6.108;2024-02-21T08:09:30;101522.28;;;8.85;100.00
73651;BME280;61944;52.538;6.108;2024-02-21T08:11:56;101518.81;;;8.88;100.00
73651;BME280;61944;52.538;6.108;2024-02-21T08:14:22;101510.06;;;8.89;100.00
73651;BME280;61944;52.538;6.108;2024-02-21T08:16:49;101508.09;;;8.90;100.00
73651;BME280;61944;52.538;6.108;2024-02-21T08:19:15;101510.50;;;8.91;100.00
73651;BME280;61944;52.538;6.108;2024-02-21T08:21:41;101512.16;;;8.92;100.00
73651;BME280;61944;52.538;6.108;2024-02-21T08:24:06;101514.38;;;8.87;100.00
73651;BME280;61944;52.538;6.108;2024-02-21T08:26:31;101517.97;;;8.87;100.00
73651;BME280;61944;52.538;6.108;2024-02-21T08:28:57;101516.22;;;8.95;100.00
73651;BME280;61944;52.538;6.108;2024-02-21T08:31:26;101509.03;;;8.94;100.00
73651;BME280;61944;52.538;6.108;2024-02-21T08:34:00;101504.38;;;8.98;100.00
73651;BME280;61944;52.538;6.108;2024-02-21T08:38:55;101487.69;;;9.02;100.00
73651;BME280;61944;52.538;6.108;2024-02-21T08:41:21;101483.38;;;9.04;100.00
73651;BME280;61944;52.538;6.108;2024-02-21T08:43:49;101481.31;;;9.01;100.00
73651;BME280;61944;52.538;6.108;2024-02-21T08:46:14;101483.84;;;9.06;100.00
73651;BME280;61944;52.538;6.108;2024-02-21T08:48:39;101473.41;;;9.03;100.00
73651;BME280;61944;52.538;6.108;2024-02-21T08:51:05;101471.06;;;9.05;100.00
73651;BME280;61944;52.538;6.108;2024-02-21T08:53:30;101471.06;;;9.05;100.00
73651;BME280;61944;52.538;6.108;2024-02-21T08:55:56;101471.53;;;9.07;100.00
73651;BME280;61944;52.538;6.108;2024-02-21T08:58:22;101463.94;;;9.08;100.00
73651;BME280;61944;52.538;6.108;2024-02-21T09:00:49;101463.59;;;9.09;100.00
73651;BME280;61944;52.538;6.108;2024-02-21T09:03:14;101465.13;;;9.07;100.00
73651;BME280;61944;52.538;6.108;2024-02-21T09:05:40;101465.13;;;9.07;100.00
73651;BME280;61944;52.538;6.108;2024-02-21T09:08:06;101463.34;;;9.14;100.00
73651;BME280;61944;52.538;6.108;2024-02-21T09:10:31;101467.78;;;9.15;100.00
73651;BME280;61944;52.538;6.108;2024-02-21T09:12:56;101460.31;;;9.20;100.00
73651;BME280;61944;52.538;6.108;2024-02-21T09:15:22;101461.84;;;9.17;100.00
73651;BME280;61944;52.538;6.108;2024-02-21T09:17:49;101457.56;;;9.07;100.00
73651;BME280;61944;52.538;6.108;2024-02-21T09:20:14;101466.41;;;9.09;100.00
73651;BME280;61944;52.538;6.108;2024-02-21T09:22:41;101456.16;;;9.13;100.00
73651;BME280;61944;52.538;6.108;2024-02-21T09:25:07;101457.06;;;9.18;100.00
73651;BME280;61944;52.538;6.108;2024-02-21T09:27:32;101455.34;;;9.13;100.00
73651;BME280;61944;52.538;6.108;2024-02-21T09:29:58;101441.91;;;9.19;100.00
73651;BME280;61944;52.538;6.108;2024-02-21T09:32:23;101439.38;;;9.13;100.00
73651;BME280;61944;52.538;6.108;2024-02-21T09:34:48;101437.84;;;9.16;100.00
73651;BME280;61944;52.538;6.108;2024-02-21T09:37:14;101434.00;;;9.21;100.00
73651;BME280;61944;52.538;6.108;2024-02-21T09:39:39;101434.00;;;9.21;100.00
73651;BME280;61944;52.538;6.108;2024-02-21T09:42:11;101433.31;;;9.24;100.00
73651;BME280;61944;52.538;6.108;2024-02-21T09:44:37;101420.59;;;9.26;100.00
73651;BME280;61944;52.538;6.108;2024-02-21T09:47:24;101416.53;;;9.24;100.00
73651;BME280;61944;52.538;6.108;2024-02-21T09:49:57;101417.00;;;9.26;100.00
73651;BME280;61944;52.538;6.108;2024-02-21T09:52:24;101414.56;;;9.24;100.00
73651;BME280;61944;52.538;6.108;2024-02-21T09:54:51;101399.88;;;9.27;100.00
73651;BME280;61944;52.538;6.108;2024-02-21T09:57:18;101393.59;;;9.30;100.00
73651;BME280;61944;52.538;6.108;2024-02-21T09:59:44;101385.66;;;9.32;100.00
73651;BME280;61944;52.538;6.108;2024-02-21T10:02:10;101391.34;;;9.36;100.00
73651;BME280;61944;52.538;6.108;2024-02-21T10:04:37;101379.00;;;9.37;100.00
73651;BME280;61944;52.538;6.108;2024-02-21T10:07:04;101375.22;;;9.45;100.00
73651;BME280;61944;52.538;6.108;2024-02-21T10:09:30;101367.53;;;9.42;100.00
73651;BME280;61944;52.538;6.108;2024-02-21T10:11:56;101359.63;;;9.44;100.00
73651;BME280;61944;52.538;6.108;2024-02-21T10:14:32;101360.53;;;9.48;100.00
73651;BME280;61944;52.538;6.108;2024-02-21T10:16:57;101353.69;;;9.46;100.00
73651;BME280;61944;52.538;6.108;2024-02-21T10:19:24;101353.69;;;9.46;100.00
73651;BME280;61944;52.538;6.108;2024-02-21T10:22:03;101344.50;;;9.45;100.00
73651;BME280;61944;52.538;6.108;2024-02-21T10:24:29;101343.06;;;9.51;100.00
73651;BME280;61944;52.538;6.108;2024-02-21T10:27:06;101332.59;;;9.64;100.00
73651;BME280;61944;52.538;6.108;2024-02-21T10:29:38;101330.59;;;9.65;100.00
73651;BME280;61944;52.538;6.108;2024-02-21T10:32:08;101329.91;;;9.68;100.00
73651;BME280;61944;52.538;6.108;2024-02-21T10:34:35;101322.66;;;9.67;100.00
73651;BME280;61944;52.538;6.108;2024-02-21T10:37:10;101308.00;;;9.70;100.00
73651;BME280;61944;52.538;6.108;2024-02-21T10:39:40;101303.66;;;9.72;100.00
73651;BME280;61944;52.538;6.108;2024-02-21T10:42:06;101303.56;;;9.69;100.00
73651;BME280;61944;52.538;6.108;2024-02-21T10:44:38;101301.50;;;9.66;100.00
73651;BME280;61944;52.538;6.108;2024-02-21T10:47:09;101296.25;;;9.64;100.00
73651;BME280;61944;52.538;6.108;2024-02-21T10:49:39;101294.28;;;9.65;100.00
73651;BME280;61944;52.538;6.108;2024-02-21T10:55:04;101293.19;;;9.69;100.00
73651;BME280;61944;52.538;6.108;2024-02-21T10:57:34;101290.78;;;9.68;100.00
73651;BME280;61944;52.538;6.108;2024-02-21T11:00:00;101295.00;;;9.62;100.00
73651;BME280;61944;52.538;6.108;2024-02-21T11:02:28;101293.38;;;9.61;100.00
73651;BME280;61944;52.538;6.108;2024-02-21T11:04:56;101275.50;;;9.65;100.00
73651;BME280;61944;52.538;6.108;2024-02-21T11:07:22;101276.97;;;9.59;100.00
73651;BME280;61944;52.538;6.108;2024-02-21T11:09:52;101265.78;;;9.59;100.00
73651;BME280;61944;52.538;6.108;2024-02-21T11:12:20;101261.03;;;9.60;100.00
73651;BME280;61944;52.538;6.108;2024-02-21T11:14:46;101247.50;;;9.62;100.00
73651;BME280;61944;52.538;6.108;2024-02-21T11:17:19;101248.38;;;9.66;100.00
73651;BME280;61944;52.538;6.108;2024-02-21T11:19:45;101234.59;;;9.57;100.00
73651;BME280;61944;52.538;6.108;2024-02-21T11:22:17;101237.13;;;9.62;100.00
73651;BME280;61944;52.538;6.108;2024-02-21T11:24:43;101232.34;;;9.63;100.00
73651;BME280;61944;52.538;6.108;2024-02-21T11:29:49;101219.09;;;9.60;100.00
73651;BME280;61944;52.538;6.108;2024-02-21T11:32:18;101213.06;;;9.57;100.00
73651;BME280;61944;52.538;6.108;2024-02-21T11:35:03;101197.84;;;9.55;100.00
73651;BME280;61944;52.538;6.108;2024-02-21T11:37:34;101184.38;;;9.61;100.00
73651;BME280;61944;52.538;6.108;2024-02-21T11:40:02;101179.53;;;9.57;100.00
73651;BME280;61944;52.538;6.108;2024-02-21T11:42:29;101163.47;;;9.54;100.00
73651;BME280;61944;52.538;6.108;2024-02-21T11:44:56;101163.91;;;9.56;100.00
73651;BME280;61944;52.538;6.108;2024-02-21T11:47:24;101154.44;;;9.61;100.00
73651;BME280;61944;52.538;6.108;2024-02-21T11:49:50;101138.06;;;9.60;100.00
73651;BME280;61944;52.538;6.108;2024-02-21T11:52:19;101131.94;;;9.54;100.00
73651;BME280;61944;52.538;6.108;2024-02-21T11:54:47;101091.69;;;9.59;100.00
73651;BME280;61944;52.538;6.108;2024-02-21T11:57:13;101094.94;;;9.61;100.00
73651;BME280;61944;52.538;6.108;2024-02-21T11:59:39;101100.53;;;9.61;100.00
73651;BME280;61944;52.538;6.108;2024-02-21T12:02:05;101168.78;;;9.60;100.00
73651;BME280;61944;52.538;6.108;2024-02-21T12:04:30;101158.06;;;9.62;100.00
73651;BME280;61944;52.538;6.108;2024-02-21T12:06:59;101142.63;;;9.68;100.00
73651;BME280;61944;52.538;6.108;2024-02-21T12:09:25;101133.06;;;9.69;100.00
73651;BME280;61944;52.538;6.108;2024-02-21T12:11:58;101143.63;;;9.60;100.00
73651;BME280;61944;52.538;6.108;2024-02-21T12:14:24;101122.88;;;9.61;100.00
73651;BME280;61944;52.538;6.108;2024-02-21T12:16:50;101103.75;;;9.63;100.00
73651;BME280;61944;52.538;6.108;2024-02-21T12:19:16;101099.16;;;9.70;100.00
73651;BME280;61944;52.538;6.108;2024-02-21T12:21:42;101099.06;;;9.67;100.00
73651;BME280;61944;52.538;6.108;2024-02-21T12:24:14;101111.03;;;9.67;100.00
73651;BME280;61944;52.538;6.108;2024-02-21T12:26:40;101115.38;;;9.65;100.00
73651;BME280;61944;52.538;6.108;2024-02-21T12:29:06;101116.59;;;9.64;100.00
73651;BME280;61944;52.538;6.108;2024-02-21T12:31:32;101104.56;;;9.63;100.00
73651;BME280;61944;52.538;6.108;2024-02-21T12:33:57;101093.84;;;9.65;100.00
73651;BME280;61944;52.538;6.108;2024-02-21T12:36:22;101077.38;;;9.60;100.00
73651;BME280;61944;52.538;6.108;2024-02-21T12:38:49;101072.34;;;9.69;100.00
73651;BME280;61944;52.538;6.108;2024-02-21T12:41:15;101053.91;;;9.65;100.00
73651;BME280;61944;52.538;6.108;2024-02-21T12:43:40;101055.09;;;9.64;100.00
73651;BME280;61944;52.538;6.108;2024-02-21T12:46:06;101029.78;;;9.56;100.00
73651;BME280;61944;52.538;6.108;2024-02-21T12:48:33;101030.22;;;9.59;100.00
73651;BME280;61944;52.538;6.108;2024-02-21T12:50:58;101002.44;;;9.66;100.00
73651;BME280;61944;52.538;6.108;2024-02-21T12:53:24;100981.31;;;9.68;100.00
73651;BME280;61944;52.538;6.108;2024-02-21T12:55:50;100963.44;;;9.73;100.00
73651;BME280;61944;52.538;6.108;2024-02-21T12:58:16;100959.47;;;9.74;100.00
73651;BME280;61944;52.538;6.108;2024-02-21T13:00:41;100965.19;;;9.81;100.00
73651;BME280;61944;52.538;6.108;2024-02-21T13:03:07;100955.16;;;9.80;100.00
73651;BME280;61944;52.538;6.108;2024-02-21T13:05:33;100951.31;;;9.88;100.00
73651;BME280;61944;52.538;6.108;2024-02-21T13:07:58;100948.50;;;9.85;100.00
73651;BME280;61944;52.538;6.108;2024-02-21T13:10:24;100925.16;;;9.77;100.00
73651;BME280;61944;52.538;6.108;2024-02-21T13:12:50;100923.13;;;9.74;100.00
73651;BME280;61944;52.538;6.108;2024-02-21T13:15:15;100910.75;;;9.75;100.00
73651;BME280;61944;52.538;6.108;2024-02-21T13:17:43;100903.56;;;9.74;100.00
73651;BME280;61944;52.538;6.108;2024-02-21T13:20:09;100885.53;;;9.71;100.00
73651;BME280;61944;52.538;6.108;2024-02-21T13:22:36;100889.16;;;9.72;100.00
73651;BME280;61944;52.538;6.108;2024-02-21T13:25:01;100883.25;;;9.77;100.00
73651;BME280;61944;52.538;6.108;2024-02-21T13:27:26;100880.56;;;9.84;100.00
73651;BME280;61944;52.538;6.108;2024-02-21T13:29:51;100882.91;;;9.82;100.00
73651;BME280;61944;52.538;6.108;2024-02-21T13:32:18;100861.75;;;9.81;100.00
73651;BME280;61944;52.538;6.108;2024-02-21T13:34:43;100848.06;;;9.76;100.00
73651;BME280;61944;52.538;6.108;2024-02-21T13:37:09;100852.56;;;9.81;100.00
73651;BME280;61944;52.538;6.108;2024-02-21T13:39:35;100841.31;;;9.77;100.00
73651;BME280;61944;52.538;6.108;2024-02-21T13:42:01;100850.47;;;9.74;100.00
73651;BME280;61944;52.538;6.108;2024-02-21T13:44:27;100840.00;;;9.71;100.00
73651;BME280;61944;52.538;6.108;2024-02-21T13:46:53;100829.69;;;9.75;100.00
73651;BME280;61944;52.538;6.108;2024-02-21T13:49:18;100814.53;;;9.76;100.00
73651;BME280;61944;52.538;6.108;2024-02-21T13:51:43;100794.22;;;9.79;100.00
73651;BME280;61944;52.538;6.108;2024-02-21T13:54:10;100785.06;;;9.82;100.00
73651;BME280;61944;52.538;6.108;2024-02-21T13:56:37;100790.22;;;9.80;100.00
73651;BME280;61944;52.538;6.108;2024-02-21T13:59:02;100785.47;;;9.81;100.00
73651;BME280;61944;52.538;6.108;2024-02-21T14:01:28;100790.56;;;9.75;100.00
73651;BME280;61944;52.538;6.108;2024-02-21T14:03:53;100775.81;;;9.78;100.00
73651;BME280;61944;52.538;6.108;2024-02-21T14:06:19;100778.31;;;9.83;100.00
73651;BME280;61944;52.538;6.108;2024-02-21T14:08:45;100768.63;;;9.77;100.00
73651;BME280;61944;52.538;6.108;2024-02-21T14:11:10;100757.53;;;9.81;100.00
73651;BME280;61944;52.538;6.108;2024-02-21T14:13:35;100749.50;;;9.79;100.00
73651;BME280;61944;52.538;6.108;2024-02-21T14:16:01;100751.00;;;9.73;100.00
73651;BME280;61944;52.538;6.108;2024-02-21T14:18:27;100731.81;;;9.71;100.00
73651;BME280;61944;52.538;6.108;2024-02-21T14:20:52;100729.44;;;9.73;100.00
73651;BME280;61944;52.538;6.108;2024-02-21T14:23:18;100731.44;;;9.73;100.00
73651;BME280;61944;52.538;6.108;2024-02-21T14:25:43;100719.88;;;9.74;100.00
73651;BME280;61944;52.538;6.108;2024-02-21T14:28:08;100706.72;;;9.75;100.00
73651;BME280;61944;52.538;6.108;2024-02-21T14:30:37;100695.44;;;9.68;100.00
73651;BME280;61944;52.538;6.108;2024-02-21T14:33:02;100688.28;;;9.70;100.00
73651;BME280;61944;52.538;6.108;2024-02-21T14:35:28;100682.31;;;9.72;100.00
73651;BME280;61944;52.538;6.108;2024-02-21T14:37:53;100667.22;;;9.76;100.00
73651;BME280;61944;52.538;6.108;2024-02-21T14:40:22;100657.59;;;9.74;100.00
73651;BME280;61944;52.538;6.108;2024-02-21T14:42:47;100655.97;;;9.73;100.00
73651;BME280;61944;52.538;6.108;2024-02-21T14:45:12;100649.59;;;9.72;100.00
73651;BME280;61944;52.538;6.108;2024-02-21T14:47:39;100653.53;;;9.71;100.00
73651;BME280;61944;52.538;6.108;2024-02-21T14:50:04;100642.34;;;9.68;100.00
73651;BME280;61944;52.538;6.108;2024-02-21T14:52:31;100636.75;;;9.68;100.00
73651;BME280;61944;52.538;6.108;2024-02-21T14:54:56;100631.97;;;9.68;100.00
73651;BME280;61944;52.538;6.108;2024-02-21T14:57:22;100628.78;;;9.70;100.00
73651;BME280;61944;52.538;6.108;2024-02-21T14:59:47;100616.84;;;9.73;100.00
73651;BME280;61944;52.538;6.108;2024-02-21T15:02:22;100616.78;;;9.69;100.00
73651;BME280;61944;52.538;6.108;2024-02-21T15:04:48;100614.03;;;9.73;100.00
73651;BME280;61944;52.538;6.108;2024-02-21T15:07:13;100612.44;;;9.72;100.00
73651;BME280;61944;52.538;6.108;2024-02-21T15:09:38;100606.09;;;9.75;100.00
73651;BME280;61944;52.538;6.108;2024-02-21T15:12:04;100610.47;;;9.76;100.00
73651;BME280;61944;52.538;6.108;2024-02-21T15:14:31;100609.75;;;9.79;100.00
73651;BME280;61944;52.538;6.108;2024-02-21T15:16:56;100597.69;;;9.75;100.00
73651;BME280;61944;52.538;6.108;2024-02-21T15:19:22;100571.75;;;9.74;100.00
73651;BME280;61944;52.538;6.108;2024-02-21T15:21:47;100556.19;;;9.77;100.00
73651;BME280;61944;52.538;6.108;2024-02-21T15:24:13;100560.59;;;9.78;100.00
73651;BME280;61944;52.538;6.108;2024-02-21T15:26:38;100548.25;;;9.79;100.00
73651;BME280;61944;52.538;6.108;2024-02-21T15:29:03;100547.44;;;9.79;100.00
73651;BME280;61944;52.538;6.108;2024-02-21T15:31:30;100536.63;;;9.77;100.00
73651;BME280;61944;52.538;6.108;2024-02-21T15:33:55;100537.47;;;9.81;100.00
73651;BME280;61944;52.538;6.108;2024-02-21T15:36:20;100522.72;;;9.81;100.00
73651;BME280;61944;52.538;6.108;2024-02-21T15:38:46;100513.06;;;9.78;100.00
73651;BME280;61944;52.538;6.108;2024-02-21T15:41:14;100499.88;;;9.75;100.00
73651;BME280;61944;52.538;6.108;2024-02-21T15:43:40;100490.66;;;9.71;100.00
73651;BME280;61944;52.538;6.108;2024-02-21T15:46:05;100487.44;;;9.69;100.00
73651;BME280;61944;52.538;6.108;2024-02-21T15:48:31;100485.00;;;9.67;100.00
73651;BME280;61944;52.538;6.108;2024-02-21T15:50:59;100465.00;;;9.62;100.00
73651;BME280;61944;52.538;6.108;2024-02-21T15:53:25;100455.41;;;9.63;100.00
73651;BME280;61944;52.538;6.108;2024-02-21T15:55:50;100452.19;;;9.61;100.00
73651;BME280;61944;52.538;6.108;2024-02-21T15:58:15;100453.78;;;9.58;100.00
73651;BME280;61944;52.538;6.108;2024-02-21T16:00:44;100447.28;;;9.50;100.00
73651;BME280;61944;52.538;6.108;2024-02-21T16:03:10;100445.34;;;9.54;100.00
73651;BME280;61944;52.538;6.108;2024-02-21T16:05:35;100454.88;;;9.50;100.00
73651;BME280;61944;52.538;6.108;2024-02-21T16:08:01;100441.69;;;9.50;100.00
73651;BME280;61944;52.538;6.108;2024-02-21T16:10:26;100421.66;;;9.41;100.00
73651;BME280;61944;52.538;6.108;2024-02-21T16:12:51;100412.91;;;9.43;100.00
73651;BME280;61944;52.538;6.108;2024-02-21T16:15:17;100401.63;;;9.35;100.00
73651;BME280;61944;52.538;6.108;2024-02-21T16:17:42;100402.78;;;9.31;100.00
73651;BME280;61944;52.538;6.108;2024-02-21T16:20:08;100390.44;;;9.32;100.00
73651;BME280;61944;52.538;6.108;2024-02-21T16:22:35;100384.38;;;9.26;100.00
73651;BME280;61944;52.538;6.108;2024-02-21T16:25:00;100387.91;;;9.23;100.00
73651;BME280;61944;52.538;6.108;2024-02-21T16:27:25;100360.75;;;9.20;100.00
73651;BME280;61944;52.538;6.108;2024-02-21T16:29:51;100346.72;;;9.13;100.00
73651;BME280;61944;52.538;6.108;2024-02-21T16:32:16;100345.56;;;9.18;100.00
73651;BME280;61944;52.538;6.108;2024-02-21T16:34:43;100334.34;;;9.14;100.00
73651;BME280;61944;52.538;6.108;2024-02-21T16:37:08;100336.69;;;9.08;100.00
73651;BME280;61944;52.538;6.108;2024-02-21T16:39:33;100335.94;;;9.11;100.00
73651;BME280;61944;52.538;6.108;2024-02-21T16:41:59;100324.66;;;9.04;100.00
73651;BME280;61944;52.538;6.108;2024-02-21T16:44:28;100321.38;;;8.95;100.00
73651;BME280;61944;52.538;6.108;2024-02-21T16:46:54;100302.63;;;8.95;100.00
73651;BME280;61944;52.538;6.108;2024-02-21T16:49:19;100328.56;;;8.96;100.00
73651;BME280;61944;52.538;6.108;2024-02-21T16:51:44;100323.00;;;8.96;100.00
73651;BME280;61944;52.538;6.108;2024-02-21T16:54:10;100310.22;;;8.95;100.00
73651;BME280;61944;52.538;6.108;2024-02-21T16:56:35;100302.22;;;8.93;100.00
73651;BME280;61944;52.538;6.108;2024-02-21T16:59:04;100296.63;;;8.93;100.00
73651;BME280;61944;52.538;6.108;2024-02-21T17:01:35;100296.94;;;8.85;100.00
73651;BME280;61944;52.538;6.108;2024-02-21T17:04:04;100301.22;;;8.79;100.00
73651;BME280;61944;52.538;6.108;2024-02-21T17:06:30;100286.47;;;8.78;100.00
73651;BME280;61944;52.538;6.108;2024-02-21T17:08:56;100287.72;;;8.81;100.00
73651;BME280;61944;52.538;6.108;2024-02-21T17:11:22;100287.75;;;8.84;100.00
73651;BME280;61944;52.538;6.108;2024-02-21T17:13:47;100276.53;;;8.77;100.00
73651;BME280;61944;52.538;6.108;2024-02-21T17:16:13;100272.53;;;8.78;100.00
73651;BME280;61944;52.538;6.108;2024-02-21T17:18:38;100272.47;;;8.74;100.00
73651;BME280;61944;52.538;6.108;2024-02-21T17:21:06;100260.53;;;8.74;100.00
73651;BME280;61944;52.538;6.108;2024-02-21T17:23:31;100257.78;;;8.78;100.00
73651;BME280;61944;52.538;6.108;2024-02-21T17:25:57;100254.91;;;8.70;100.00
73651;BME280;61944;52.538;6.108;2024-02-21T17:28:22;100260.09;;;8.72;100.00
73651;BME280;61944;52.538;6.108;2024-02-21T17:30:49;100251.25;;;8.66;100.00
73651;BME280;61944;52.538;6.108;2024-02-21T17:33:14;100243.59;;;8.60;100.00
73651;BME280;61944;52.538;6.108;2024-02-21T17:35:40;100255.25;;;8.65;100.00
73651;BME280;61944;52.538;6.108;2024-02-21T17:38:08;100245.25;;;8.64;100.00
73651;BME280;61944;52.538;6.108;2024-02-21T17:40:34;100252.69;;;8.53;100.00
73651;BME280;61944;52.538;6.108;2024-02-21T17:43:00;100235.63;;;8.58;100.00
73651;BME280;61944;52.538;6.108;2024-02-21T17:45:26;100234.69;;;8.47;100.00
73651;BME280;61944;52.538;6.108;2024-02-21T17:47:51;100226.41;;;8.54;100.00
73651;BME280;61944;52.538;6.108;2024-02-21T17:50:18;100220.03;;;8.53;100.00
73651;BME280;61944;52.538;6.108;2024-02-21T17:52:44;100228.38;;;8.53;100.00
73651;BME280;61944;52.538;6.108;2024-02-21T17:55:09;100214.78;;;8.48;100.00
73651;BME280;61944;52.538;6.108;2024-02-21T17:57:37;100212.84;;;8.52;100.00
73651;BME280;61944;52.538;6.108;2024-02-21T18:00:03;100211.66;;;8.53;100.00
73651;BME280;61944;52.538;6.108;2024-02-21T18:02:28;100203.72;;;8.55;100.00
73651;BME280;61944;52.538;6.108;2024-02-21T18:04:53;100192.19;;;8.57;100.00
73651;BME280;61944;52.538;6.108;2024-02-21T18:07:20;100207.75;;;8.58;100.00
73651;BME280;61944;52.538;6.108;2024-02-21T18:09:46;100190.06;;;8.47;100.00
73651;BME280;61944;52.538;6.108;2024-02-21T18:12:11;100176.63;;;8.56;100.00
73651;BME280;61944;52.538;6.108;2024-02-21T18:14:37;100162.28;;;8.54;100.00
73651;BME280;61944;52.538;6.108;2024-02-21T18:17:02;100170.59;;;8.50;100.00
73651;BME280;61944;52.538;6.108;2024-02-21T18:19:27;100151.81;;;8.47;100.00
73651;BME280;61944;52.538;6.108;2024-02-21T18:21:53;100152.69;;;8.55;100.00
73651;BME280;61944;52.538;6.108;2024-02-21T18:24:18;100140.75;;;8.54;100.00
73651;BME280;61944;52.538;6.108;2024-02-21T18:26:43;100146.97;;;8.41;100.00
73651;BME280;61944;52.538;6.108;2024-02-21T18:29:09;100139.00;;;8.43;100.00
73651;BME280;61944;52.538;6.108;2024-02-21T18:31:34;100140.56;;;8.40;100.00
73651;BME280;61944;52.538;6.108;2024-02-21T18:34:00;100135.84;;;8.44;100.00
73651;BME280;61944;52.538;6.108;2024-02-21T18:36:28;100127.97;;;8.50;100.00
73651;BME280;61944;52.538;6.108;2024-02-21T18:38:54;100119.91;;;8.41;100.00